Time;durP1;ratioP1;P1;durP2;ratioP2;P2;SDS_P1;SDS_P2;PMS_P1;PMS_P2;Temp;Humidity;BMP_temperature;BMP_pressure;BME280_temperature;BME280_humidity;BME280_pressure;Samples;Min_cycle;Max_cycle;Signal;HPM_P1;HPM_P2
2021/07/24 00:01:16;;;;;;;9.13;6.13;;;19.80;99.90;;;;;;5078285;28;20223;-77
2021/07/24 00:03:42;;;;;;;7.60;6.85;;;19.90;99.90;;;;;;5094771;28;20179;-76
2021/07/24 00:06:08;;;;;;;11.57;6.40;;;19.80;99.90;;;;;;5096388;28;20166;-76
2021/07/24 00:08:35;;;;;;;11.02;6.80;;;19.80;99.90;;;;;;5077936;28;20221;-77
2021/07/24 00:11:04;;;;;;;10.80;6.90;;;19.80;99.90;;;;;;5083245;28;20210;-77
2021/07/24 00:13:35;;;;;;;7.20;6.60;;;19.80;99.90;;;;;;5076889;28;20644;-79
2021/07/24 00:16:01;;;;;;;8.43;6.70;;;19.80;99.90;;;;;;5075988;28;20156;-77
2021/07/24 00:18:26;;;;;;;6.95;6.25;;;19.80;99.90;;;;;;5075907;28;20228;-77
2021/07/24 00:20:52;;;;;;;15.52;6.47;;;19.90;99.90;;;;;;5024913;28;20171;-77
2021/07/24 00:23:18;;;;;;;10.50;6.95;;;19.80;99.90;;;;;;5075523;28;20226;-78
2021/07/24 00:25:44;;;;;;;7.50;6.72;;;19.80;99.90;;;;;;5076894;28;20672;-77
2021/07/24 00:28:10;;;;;;;13.68;6.60;;;19.70;99.90;;;;;;5075605;28;20173;-77
2021/07/24 00:30:40;;;;;;;11.55;6.47;;;19.70;99.90;;;;;;5075744;28;20163;-77
2021/07/24 00:33:06;;;;;;;8.40;7.35;;;19.90;99.90;;;;;;5057639;28;20211;-77
2021/07/24 00:35:33;;;;;;;7.60;6.78;;;19.90;99.90;;;;;;5076708;28;20182;-77
2021/07/24 00:37:58;;;;;;;15.45;6.90;;;19.90;99.90;;;;;;5075510;28;20225;-77
2021/07/24 00:40:27;;;;;;;13.00;7.90;;;19.90;99.90;;;;;;5085655;28;20218;-78
2021/07/24 00:42:55;;;;;;;14.13;7.60;;;19.70;99.90;;;;;;5095728;28;20162;-76
2021/07/24 00:45:21;;;;;;;10.43;7.13;;;19.80;99.90;;;;;;5085098;28;20198;-77
2021/07/24 00:47:50;;;;;;;9.13;7.68;;;19.70;99.90;;;;;;5075425;28;20205;-77
2021/07/24 00:50:17;;;;;;;10.88;7.53;;;19.80;99.90;;;;;;5075380;28;20178;-76
2021/07/24 00:52:43;;;;;;;12.95;7.88;;;19.90;99.90;;;;;;5075220;28;20244;-77
2021/07/24 00:55:11;;;;;;;15.30;7.20;;;19.80;99.90;;;;;;5058425;28;20203;-78
2021/07/24 00:57:40;;;;;;;10.70;7.22;;;19.70;99.90;;;;;;5075116;28;20207;-76
2021/07/24 01:00:07;;;;;;;8.35;7.38;;;19.60;99.90;;;;;;5080758;28;20166;-76
2021/07/24 01:02:33;;;;;;;16.63;8.18;;;19.60;99.90;;;;;;5090976;28;20224;-75
2021/07/24 01:05:01;;;;;;;12.25;8.43;;;19.70;99.90;;;;;;5074724;28;20175;-77
2021/07/24 01:07:27;;;;;;;15.48;8.35;;;19.60;99.90;;;;;;5074804;28;20170;-76
2021/07/24 01:09:53;;;;;;;15.60;9.05;;;19.50;99.90;;;;;;5085860;28;20581;-76
2021/07/24 01:12:19;;;;;;;9.40;8.60;;;19.30;99.90;;;;;;5094429;28;20202;-77
2021/07/24 01:14:46;;;;;;;13.75;8.57;;;19.20;99.90;;;;;;5075335;28;20182;-76
2021/07/24 01:17:11;;;;;;;10.85;8.38;;;19.10;99.90;;;;;;5074864;28;20213;-76
2021/07/24 01:19:37;;;;;;;9.25;8.35;;;19.00;99.90;;;;;;5061623;28;20550;-76
2021/07/24 01:22:03;;;;;;;9.88;8.57;;;18.90;99.90;;;;;;5076803;28;20182;-76
2021/07/24 01:24:28;;;;;;;13.48;8.73;;;18.90;99.90;;;;;;5095062;28;20177;-76
2021/07/24 01:26:54;;;;;;;12.23;9.02;;;18.80;99.90;;;;;;5076628;28;20182;-76
2021/07/24 01:29:21;;;;;;;14.48;8.98;;;18.70;99.90;;;;;;5094144;28;20172;-76
2021/07/24 01:31:47;;;;;;;11.88;9.15;;;18.70;99.90;;;;;;5092659;28;20567;-76
2021/07/24 01:34:13;;;;;;;9.55;8.55;;;18.70;99.90;;;;;;5087329;28;20635;-76
2021/07/24 01:36:39;;;;;;;10.13;9.32;;;18.80;99.90;;;;;;5056724;28;20171;-78
2021/07/24 01:39:05;;;;;;;12.75;9.88;;;18.80;99.90;;;;;;5074072;28;20171;-77
2021/07/24 01:41:30;;;;;;;12.25;9.38;;;19.10;99.90;;;;;;5074502;28;20182;-77
2021/07/24 01:43:56;;;;;;;14.90;8.85;;;19.20;99.90;;;;;;5057570;28;20182;-77
2021/07/24 01:46:22;;;;;;;10.65;9.60;;;19.40;99.90;;;;;;5074224;28;20252;-77
2021/07/24 01:54:48;;;;;;;14.45;8.25;;;19.30;99.90;;;;;;5074080;28;20640;-76
2021/07/24 01:57:15;;;;;;;10.88;8.25;;;19.30;99.90;;;;;;5056216;28;20166;-76
2021/07/24 01:59:43;;;;;;;10.38;9.18;;;19.30;99.90;;;;;;5058398;28;20155;-77
2021/07/24 02:02:15;;;;;;;11.55;8.27;;;19.30;99.90;;;;;;5094230;28;20174;-76
2021/07/24 02:04:48;;;;;;;11.35;8.57;;;19.40;99.90;;;;;;5091118;28;20154;-76
2021/07/24 02:07:16;;;;;;;15.75;9.05;;;19.30;99.90;;;;;;5094233;28;20185;-76
2021/07/24 02:09:42;;;;;;;10.32;8.93;;;19.30;99.90;;;;;;5092009;28;20173;-76
2021/07/24 02:12:09;;;;;;;13.80;8.52;;;19.30;99.90;;;;;;5073414;28;20206;-76
2021/07/24 02:14:35;;;;;;;10.48;9.52;;;19.20;99.90;;;;;;5072619;28;20178;-77
2021/07/24 02:17:01;;;;;;;9.93;8.93;;;19.10;99.90;;;;;;5093978;28;20172;-77
2021/07/24 02:19:32;;;;;;;14.65;9.18;;;19.20;99.90;;;;;;5093223;28;20588;-78
2021/07/24 02:21:58;;;;;;;11.45;8.52;;;19.30;99.90;;;;;;5073331;28;20578;-76
2021/07/24 02:24:24;;;;;;;10.82;9.07;;;19.30;99.90;;;;;;5055634;28;20563;-77
2021/07/24 02:26:49;;;;;;;9.18;8.27;;;19.40;99.90;;;;;;5055844;28;20174;-76
2021/07/24 02:29:15;;;;;;;11.02;9.30;;;19.50;99.90;;;;;;5073521;28;20167;-79
2021/07/24 02:31:41;;;;;;;12.70;10.02;;;19.40;99.90;;;;;;5093949;28;20549;-77
2021/07/24 02:34:06;;;;;;;10.70;9.23;;;19.50;99.90;;;;;;5085002;28;20262;-76
2021/07/24 02:36:32;;;;;;;11.15;9.07;;;19.50;99.90;;;;;;5067366;28;20207;-76
2021/07/24 02:38:59;;;;;;;9.75;8.68;;;19.60;99.90;;;;;;5075564;28;20222;-76
2021/07/24 02:41:24;;;;;;;9.27;8.27;;;19.60;99.90;;;;;;5093401;28;20562;-76
2021/07/24 02:43:50;;;;;;;10.85;9.13;;;19.60;99.90;;;;;;5093432;28;20245;-77
2021/07/24 02:46:19;;;;;;;10.90;9.20;;;19.60;99.90;;;;;;5093785;28;20176;-77
2021/07/24 02:48:46;;;;;;;13.88;10.02;;;19.60;99.90;;;;;;5076020;28;20192;-77
2021/07/24 02:51:12;;;;;;;11.57;8.63;;;19.60;99.90;;;;;;5092909;28;20619;-78
2021/07/24 02:53:38;;;;;;;9.48;8.68;;;19.60;99.90;;;;;;5093065;28;20232;-76
2021/07/24 02:56:04;;;;;;;10.35;9.40;;;19.60;99.90;;;;;;5093491;28;20643;-77
2021/07/24 02:58:29;;;;;;;10.70;9.60;;;19.60;99.90;;;;;;5093544;28;20269;-77
2021/07/24 03:00:55;;;;;;;10.73;9.40;;;19.60;99.90;;;;;;5060156;28;20189;-76
2021/07/24 03:03:21;;;;;;;15.02;9.20;;;19.60;99.90;;;;;;5059913;28;20179;-76
2021/07/24 03:05:47;;;;;;;14.35;9.95;;;19.20;99.90;;;;;;5079618;28;20173;-76
2021/07/24 03:08:14;;;;;;;10.73;9.63;;;19.00;99.90;;;;;;5097516;28;20643;-76
2021/07/24 03:10:39;;;;;;;12.70;9.38;;;18.90;99.90;;;;;;5080949;28;20183;-76
2021/07/24 03:13:05;;;;;;;10.65;9.52;;;18.70;99.90;;;;;;5077127;28;20198;-77
2021/07/24 03:15:31;;;;;;;13.15;9.57;;;18.70;99.90;;;;;;5059142;28;20633;-76
2021/07/24 03:17:56;;;;;;;10.70;9.60;;;18.80;99.90;;;;;;5059179;28;20205;-76
2021/07/24 03:20:22;;;;;;;11.05;9.95;;;18.70;99.90;;;;;;5090441;28;20251;-76
2021/07/24 03:22:48;;;;;;;11.85;9.50;;;18.60;99.90;;;;;;5096959;28;20193;-77
2021/07/24 03:25:13;;;;;;;11.88;9.75;;;18.60;99.90;;;;;;5097240;28;20168;-78
2021/07/24 03:27:39;;;;;;;14.00;9.73;;;18.70;99.90;;;;;;5097264;28;20593;-77
2021/07/24 03:30:05;;;;;;;13.70;10.23;;;18.60;99.90;;;;;;5078613;28;20174;-76
2021/07/24 03:32:31;;;;;;;11.00;9.90;;;18.60;99.90;;;;;;5097052;28;20198;-76
2021/07/24 03:34:58;;;;;;;10.82;9.75;;;18.70;99.90;;;;;;5094489;28;20231;-76
2021/07/24 03:37:23;;;;;;;11.48;9.70;;;18.70;99.90;;;;;;5097021;28;20171;-76
2021/07/24 03:39:49;;;;;;;13.68;9.77;;;18.80;99.90;;;;;;5085759;28;20270;-76
2021/07/24 03:42:15;;;;;;;14.57;10.45;;;18.90;99.90;;;;;;5076639;28;20629;-77
2021/07/24 03:44:41;;;;;;;11.80;10.13;;;18.90;99.90;;;;;;5076415;28;20228;-76
2021/07/24 03:47:06;;;;;;;12.57;10.30;;;18.90;99.90;;;;;;5082091;28;20223;-77
2021/07/24 03:49:32;;;;;;;15.55;9.98;;;18.80;99.90;;;;;;5096962;28;20191;-76
2021/07/24 03:51:58;;;;;;;13.90;10.90;;;18.60;99.90;;;;;;5078620;28;20206;-76
2021/07/24 03:54:23;;;;;;;10.98;9.90;;;18.50;99.90;;;;;;5078585;28;20235;-76
2021/07/24 03:56:49;;;;;;;17.13;10.45;;;18.40;99.90;;;;;;5092296;28;20167;-77
2021/07/24 03:59:14;;;;;;;16.15;10.57;;;18.20;99.90;;;;;;5076435;28;20186;-79
2021/07/24 04:01:43;;;;;;;13.70;10.55;;;18.10;99.90;;;;;;5076260;28;20248;-77
2021/07/24 04:04:08;;;;;;;11.52;10.15;;;18.20;99.90;;;;;;5085607;28;20170;-77
2021/07/24 04:06:34;;;;;;;11.30;10.18;;;18.30;99.90;;;;;;5066966;28;20177;-77
2021/07/24 04:09:01;;;;;;;11.45;10.27;;;18.40;99.90;;;;;;5078456;28;20170;-76
2021/07/24 04:11:28;;;;;;;12.32;11.18;;;18.60;99.90;;;;;;5077720;28;20174;-77
2021/07/24 04:13:54;;;;;;;11.10;9.98;;;18.70;99.90;;;;;;5095388;28;20181;-77
2021/07/24 04:16:20;;;;;;;14.38;10.48;;;18.80;99.90;;;;;;5077449;28;20261;-77
2021/07/24 04:18:46;;;;;;;13.82;10.30;;;18.90;99.90;;;;;;5095657;28;20254;-77
2021/07/24 04:21:13;;;;;;;12.95;10.27;;;19.10;99.90;;;;;;5077874;28;20257;-77
2021/07/24 04:23:38;;;;;;;12.20;10.60;;;19.20;99.90;;;;;;5096066;28;20166;-77
2021/07/24 04:26:04;;;;;;;21.85;9.93;;;19.10;99.90;;;;;;5076818;28;20204;-77
2021/07/24 04:28:30;;;;;;;12.13;10.07;;;18.80;99.90;;;;;;5075792;28;20651;-77
2021/07/24 04:30:55;;;;;;;14.18;10.20;;;18.70;99.90;;;;;;5057768;28;20220;-77
2021/07/24 04:33:21;;;;;;;11.13;9.90;;;18.60;99.90;;;;;;5076007;28;20586;-77
2021/07/24 04:35:48;;;;;;;10.65;9.80;;;18.60;99.90;;;;;;5057869;28;20175;-77
2021/07/24 04:38:15;;;;;;;10.38;9.38;;;18.60;99.90;;;;;;5093501;28;20265;-77
2021/07/24 04:40:41;;;;;;;10.98;9.25;;;18.60;99.90;;;;;;5095328;28;20202;-78
2021/07/24 04:43:07;;;;;;;14.15;10.18;;;18.70;99.90;;;;;;5095805;28;20178;-76
2021/07/24 04:45:33;;;;;;;15.50;9.90;;;18.80;99.90;;;;;;5095965;28;20181;-76
2021/07/24 04:47:59;;;;;;;10.88;9.85;;;18.70;99.90;;;;;;5095307;28;20264;-76
2021/07/24 04:50:26;;;;;;;14.48;9.95;;;18.70;99.90;;;;;;5077587;28;20201;-76
2021/07/24 04:52:51;;;;;;;16.27;10.48;;;18.70;99.90;;;;;;5077465;28;20198;-77
2021/07/24 04:55:18;;;;;;;11.23;10.05;;;18.70;99.90;;;;;;5077292;28;20177;-77
2021/07/24 04:57:44;;;;;;;12.73;10.27;;;18.60;99.90;;;;;;5076323;28;20224;-77
2021/07/24 05:00:13;;;;;;;10.40;9.27;;;18.60;99.90;;;;;;5095460;28;20239;-77
2021/07/24 05:02:39;;;;;;;16.63;9.55;;;18.70;99.90;;;;;;5095324;28;20304;-76
2021/07/24 05:05:05;;;;;;;13.73;9.60;;;18.90;99.90;;;;;;5075450;28;20269;-77
2021/07/24 05:07:32;;;;;;;12.68;10.32;;;19.00;99.90;;;;;;5091701;28;20180;-77
2021/07/24 05:09:58;;;;;;;14.32;10.07;;;18.90;99.90;;;;;;5076883;28;20175;-77
2021/07/24 05:12:24;;;;;;;14.15;9.98;;;18.80;99.90;;;;;;5095226;28;20652;-76
2021/07/24 05:14:49;;;;;;;12.55;10.13;;;18.80;99.90;;;;;;5095202;28;20198;-77
2021/07/24 05:17:15;;;;;;;12.45;10.07;;;18.90;99.90;;;;;;5080277;28;20178;-76
2021/07/24 05:19:43;;;;;;;13.45;9.73;;;19.10;99.90;;;;;;5074647;28;20170;-77
2021/07/24 05:22:10;;;;;;;11.02;9.93;;;19.20;99.90;;;;;;5077309;28;20187;-76
2021/07/24 05:24:36;;;;;;;10.38;9.35;;;19.30;99.90;;;;;;5093943;28;20172;-77
2021/07/24 05:27:03;;;;;;;15.80;9.57;;;19.50;99.90;;;;;;5061632;28;20569;-77
2021/07/24 05:29:29;;;;;;;9.70;8.82;;;19.60;99.90;;;;;;5074582;28;20198;-77
2021/07/24 05:31:55;;;;;;;15.15;10.07;;;19.70;99.90;;;;;;5056446;28;20242;-77
2021/07/24 05:34:22;;;;;;;10.10;9.20;;;20.00;99.90;;;;;;5087053;28;20170;-77
2021/07/24 05:36:48;;;;;;;11.60;9.27;;;20.20;99.90;;;;;;5063530;28;20260;-75
2021/07/24 05:39:14;;;;;;;10.68;9.63;;;20.20;99.90;;;;;;5056901;28;20488;-77
2021/07/24 05:41:39;;;;;;;11.13;9.15;;;20.40;99.90;;;;;;5056366;28;20206;-77
2021/07/24 05:44:05;;;;;;;10.98;9.85;;;20.50;99.90;;;;;;5074280;28;20163;-77
2021/07/24 05:46:31;;;;;;;9.52;8.63;;;20.70;99.90;;;;;;5068752;28;20178;-77
2021/07/24 05:48:56;;;;;;;9.73;8.75;;;20.90;99.90;;;;;;5059557;28;20231;-77
2021/07/24 05:51:22;;;;;;;10.00;8.95;;;20.50;99.90;;;;;;5094686;28;20182;-77
2021/07/24 05:53:47;;;;;;;8.68;8.07;;;20.10;99.90;;;;;;5094300;28;20568;-77
2021/07/24 05:56:13;;;;;;;8.82;7.90;;;20.20;99.90;;;;;;5083950;28;20179;-77
2021/07/24 05:58:38;;;;;;;13.25;8.85;;;20.40;99.90;;;;;;5056176;28;20186;-77
2021/07/24 06:01:11;;;;;;;11.13;9.85;;;20.60;99.90;;;;;;5056070;28;20255;-79
2021/07/24 06:03:38;;;;;;;13.20;8.70;;;20.90;99.90;;;;;;5061831;28;20174;-77
2021/07/24 06:06:03;;;;;;;11.73;8.40;;;21.00;99.90;;;;;;5093847;28;20178;-77
2021/07/24 06:08:29;;;;;;;12.25;9.15;;;21.10;99.90;;;;;;5094349;28;20497;-77
2021/07/24 06:10:59;;;;;;;14.70;9.20;;;20.70;99.90;;;;;;5094128;28;20177;-77
2021/07/24 06:13:25;;;;;;;10.15;9.25;;;20.40;99.90;;;;;;5075840;28;20534;-77
2021/07/24 06:15:50;;;;;;;9.35;8.45;;;20.30;99.90;;;;;;5063002;28;20181;-77
2021/07/24 06:18:16;;;;;;;9.85;8.65;;;20.50;99.90;;;;;;5073756;28;20171;-78
2021/07/24 06:20:42;;;;;;;10.82;9.70;;;20.80;99.90;;;;;;5073450;28;20181;-77
2021/07/24 06:23:07;;;;;;;9.88;8.35;;;21.10;99.90;;;;;;5039074;28;20181;-77
2021/07/24 06:25:33;;;;;;;14.00;9.00;;;21.20;99.90;;;;;;5073863;28;20182;-78
2021/07/24 06:27:59;;;;;;;9.10;8.25;;;21.40;99.90;;;;;;5093235;28;20174;-77
2021/07/24 06:30:25;;;;;;;9.30;8.48;;;21.60;99.90;;;;;;5058878;28;20242;-78
2021/07/24 06:32:51;;;;;;;10.05;8.13;;;21.80;99.90;;;;;;5074750;28;20672;-77
2021/07/24 06:35:17;;;;;;;25.58;9.60;;;22.00;99.90;;;;;;5067938;28;20178;-77
2021/07/24 06:37:42;;;;;;;12.75;9.73;;;22.00;99.90;;;;;;5073454;28;20610;-77
2021/07/24 06:40:09;;;;;;;13.38;9.13;;;22.00;99.90;;;;;;5073452;28;20181;-81
2021/07/24 06:42:35;;;;;;;12.35;9.77;;;21.80;99.90;;;;;;5073546;28;20192;-78
2021/07/24 06:45:01;;;;;;;12.77;8.82;;;21.50;99.90;;;;;;5080846;28;20224;-78
2021/07/24 06:47:27;;;;;;;8.82;7.93;;;21.60;99.90;;;;;;5075623;28;20245;-77
2021/07/24 06:49:52;;;;;;;20.15;9.73;;;21.80;99.90;;;;;;5075613;28;20209;-77
2021/07/24 06:52:18;;;;;;;13.95;9.90;;;22.10;99.90;;;;;;5093667;28;20254;-77
2021/07/24 06:54:44;;;;;;;8.95;8.02;;;22.30;99.90;;;;;;5090190;28;20173;-77
2021/07/24 06:57:09;;;;;;;17.23;9.05;;;22.40;99.90;;;;;;5073214;28;20174;-79
2021/07/24 06:59:35;;;;;;;9.95;8.27;;;22.20;99.90;;;;;;5073137;28;20534;-77
2021/07/24 07:02:00;;;;;;;17.17;9.68;;;22.20;99.90;;;;;;5055398;28;20261;-78
2021/07/24 07:04:27;;;;;;;10.77;8.27;;;22.20;99.90;;;;;;5064743;28;20258;-77
2021/07/24 07:06:52;;;;;;;18.23;8.82;;;22.00;99.90;;;;;;5073223;28;20167;-77
2021/07/24 07:09:18;;;;;;;10.90;9.07;;;22.10;99.90;;;;;;5073080;28;20617;-77
2021/07/24 07:11:44;;;;;;;15.65;8.85;;;22.20;99.90;;;;;;5055435;28;20174;-77
2021/07/24 07:14:10;;;;;;;11.80;8.35;;;22.10;99.90;;;;;;5075211;28;20166;-78
2021/07/24 07:16:36;;;;;;;10.95;9.85;;;22.10;99.90;;;;;;5093066;28;20614;-77
2021/07/24 07:19:02;;;;;;;10.45;9.50;;;22.20;99.90;;;;;;5093016;28;20174;-77
2021/07/24 07:21:27;;;;;;;10.50;8.55;;;22.10;99.90;;;;;;5093253;28;20166;-77
2021/07/24 07:23:53;;;;;;;10.13;9.18;;;21.80;99.90;;;;;;5092911;28;20197;-77
2021/07/24 07:26:23;;;;;;;13.20;9.45;;;21.60;99.90;;;;;;5074862;28;20249;-77
2021/07/24 07:28:49;;;;;;;9.80;8.80;;;21.40;99.90;;;;;;5093284;28;20177;-77
2021/07/24 07:31:14;;;;;;;11.55;9.65;;;21.40;99.90;;;;;;5092925;28;20174;-78
2021/07/24 07:33:41;;;;;;;10.57;9.57;;;21.50;99.90;;;;;;5065395;28;20715;-77
2021/07/24 07:36:06;;;;;;;16.10;10.13;;;21.50;99.90;;;;;;5056307;28;20175;-77
2021/07/24 07:38:32;;;;;;;10.95;9.63;;;21.50;99.90;;;;;;5092408;28;20288;-77
2021/07/24 07:40:58;;;;;;;10.18;8.57;;;21.70;99.90;;;;;;5074060;28;20592;-77
2021/07/24 07:43:23;;;;;;;13.77;9.60;;;21.90;99.90;;;;;;5093037;28;20280;-79
2021/07/24 07:45:49;;;;;;;10.23;9.25;;;22.20;99.90;;;;;;5074721;28;20261;-77
2021/07/24 07:48:15;;;;;;;12.00;9.00;;;22.40;99.90;;;;;;5048644;28;20175;-77
2021/07/24 07:50:43;;;;;;;15.80;9.02;;;22.50;99.90;;;;;;5086830;28;20175;-76
2021/07/24 07:53:10;;;;;;;9.57;8.75;;;22.10;99.90;;;;;;5076498;28;20559;-77
2021/07/24 07:55:36;;;;;;;11.05;9.20;;;21.80;99.90;;;;;;5087729;28;20181;-80
2021/07/24 07:58:12;;;;;;;15.02;10.00;;;21.90;99.90;;;;;;5088833;28;20190;-77
2021/07/24 08:00:38;;;;;;;12.13;9.70;;;22.30;99.90;;;;;;5075156;28;20174;-76
2021/07/24 08:03:04;;;;;;;10.25;9.23;;;22.60;99.90;;;;;;5076233;28;20236;-76
2021/07/24 08:05:29;;;;;;;14.05;9.02;;;22.80;99.90;;;;;;5077377;28;20162;-76
2021/07/24 08:07:55;;;;;;;11.15;9.02;;;22.90;99.90;;;;;;5076173;28;20179;-77
2021/07/24 08:10:21;;;;;;;10.18;8.80;;;22.60;99.90;;;;;;5058225;28;20170;-77
2021/07/24 08:12:47;;;;;;;9.85;8.82;;;22.60;99.90;;;;;;5083718;28;20198;-77
2021/07/24 08:15:13;;;;;;;12.70;9.80;;;22.70;99.90;;;;;;5096303;28;20162;-77
2021/07/24 08:17:39;;;;;;;13.73;9.38;;;22.90;99.90;;;;;;5077681;28;20234;-77
2021/07/24 08:20:06;;;;;;;12.55;9.48;;;23.20;99.90;;;;;;5096152;28;20168;-77
2021/07/24 08:22:32;;;;;;;14.45;10.68;;;23.30;99.90;;;;;;5095300;28;20220;-77
2021/07/24 08:24:58;;;;;;;14.10;10.32;;;23.50;99.90;;;;;;5095847;28;20636;-76
2021/07/24 08:27:25;;;;;;;13.10;10.70;;;23.60;99.90;;;;;;5096109;28;20181;-76
2021/07/24 08:29:51;;;;;;;11.30;9.73;;;23.60;99.90;;;;;;5091754;28;20178;-76
2021/07/24 08:32:17;;;;;;;16.40;11.48;;;23.70;99.90;;;;;;5063274;28;20567;-76
2021/07/24 08:34:42;;;;;;;17.67;10.93;;;23.80;99.90;;;;;;5076325;28;20173;-76
2021/07/24 08:37:08;;;;;;;12.30;9.07;;;23.90;99.90;;;;;;5095883;28;20178;-76
2021/07/24 08:39:35;;;;;;;10.70;9.70;;;24.00;99.90;;;;;;5095878;28;20170;-76
2021/07/24 08:42:03;;;;;;;12.40;10.80;;;24.00;99.90;;;;;;5095148;28;20692;-81
2021/07/24 08:44:28;;;;;;;12.43;9.18;;;24.00;99.90;;;;;;5088638;28;20186;-77
2021/07/24 08:46:55;;;;;;;19.05;10.35;;;24.20;99.90;;;;;;5075706;28;20174;-77
2021/07/24 08:49:21;;;;;;;11.98;10.20;;;24.20;99.90;;;;;;5075370;28;20225;-77
2021/07/24 08:51:48;;;;;;;12.25;10.27;;;24.30;99.90;;;;;;5057392;28;20163;-77
2021/07/24 08:54:14;;;;;;;12.68;10.70;;;24.40;99.90;;;;;;5060982;28;20178;-77
2021/07/24 08:56:46;;;;;;;10.80;9.85;;;24.50;99.90;;;;;;5075243;28;20510;-77
2021/07/24 08:59:14;;;;;;;11.60;10.45;;;24.70;99.90;;;;;;5079391;28;20178;-76
2021/07/24 09:01:42;;;;;;;12.15;10.07;;;24.80;99.90;;;;;;5081532;28;20201;-77
2021/07/24 09:04:08;;;;;;;11.02;9.93;;;24.80;99.90;;;;;;5075663;28;20504;-77
2021/07/24 09:06:33;;;;;;;17.77;10.07;;;24.70;99.90;;;;;;5056951;28;20273;-77
2021/07/24 09:08:59;;;;;;;11.95;9.90;;;24.70;99.90;;;;;;5074745;28;20532;-78
2021/07/24 09:11:25;;;;;;;11.40;10.43;;;24.70;99.90;;;;;;5074918;28;20178;-77
2021/07/24 09:13:51;;;;;;;11.40;10.30;;;24.80;99.90;;;;;;5075135;28;20206;-77
2021/07/24 09:16:17;;;;;;;11.52;10.35;;;24.80;99.90;;;;;;5074734;28;20159;-76
2021/07/24 09:18:42;;;;;;;15.52;10.48;;;24.70;99.90;;;;;;5065472;28;20185;-77
2021/07/24 09:21:08;;;;;;;14.02;9.98;;;24.60;99.90;;;;;;5091308;28;20257;-76
2021/07/24 09:23:39;;;;;;;13.70;11.25;;;24.30;99.90;;;;;;5077413;28;20182;-76
2021/07/24 09:26:06;;;;;;;16.67;10.70;;;24.30;99.90;;;;;;5074636;28;20166;-76
2021/07/24 09:28:33;;;;;;;12.68;10.55;;;24.30;99.90;;;;;;5074230;28;20167;-76
2021/07/24 09:31:17;;;;;;;23.15;10.02;;;24.30;99.90;;;;;;5056381;28;20257;-76
2021/07/24 09:33:50;;;;;;;19.50;11.23;;;24.30;99.90;;;;;;5074474;28;20265;-76
2021/07/24 09:36:33;;;;;;;21.77;10.98;;;24.30;99.90;;;;;;5088044;28;20174;-77
2021/07/24 09:39:12;;;;;;;20.60;10.68;;;24.40;99.90;;;;;;5085412;28;20206;-77
2021/07/24 09:41:39;;;;;;;15.68;10.43;;;24.40;99.90;;;;;;5073992;28;20625;-76
2021/07/24 09:44:08;;;;;;;24.20;11.18;;;24.40;99.90;;;;;;5074170;28;20178;-77
2021/07/24 09:46:34;;;;;;;13.88;11.27;;;24.30;99.90;;;;;;5056381;28;20171;-76
2021/07/24 09:49:15;;;;;;;12.65;11.32;;;24.20;99.90;;;;;;5056478;28;20174;-77
2021/07/24 09:51:42;;;;;;;21.55;11.98;;;24.20;99.90;;;;;;5074764;28;20202;-77
2021/07/24 09:54:27;;;;;;;15.40;11.50;;;24.20;99.90;;;;;;5074297;28;20171;-77
2021/07/24 09:56:53;;;;;;;20.05;11.77;;;24.30;99.90;;;;;;5074158;28;20158;-77
2021/07/24 09:59:24;;;;;;;17.70;11.65;;;24.30;99.90;;;;;;5056017;28;20206;-77
2021/07/24 10:02:03;;;;;;;19.15;11.77;;;24.30;99.90;;;;;;5085656;28;20270;-76
2021/07/24 10:04:30;;;;;;;13.68;11.07;;;24.30;99.90;;;;;;5092776;28;20158;-78
2021/07/24 10:07:04;;;;;;;19.20;11.57;;;24.20;99.90;;;;;;5075753;28;20204;-79
2021/07/24 10:09:35;;;;;;;17.08;13.32;;;24.20;99.90;;;;;;5086721;28;20326;-78
2021/07/24 10:12:05;;;;;;;13.27;11.88;;;24.00;99.90;;;;;;5087106;28;20198;-79
2021/07/24 10:14:31;;;;;;;18.45;11.90;;;23.90;99.90;;;;;;5091694;28;20174;-77
2021/07/24 10:17:01;;;;;;;18.02;11.85;;;24.00;99.90;;;;;;5099699;28;20202;-78
2021/07/24 10:19:29;;;;;;;21.85;11.48;;;24.00;99.90;;;;;;5114467;28;20149;-78
2021/07/24 10:21:56;;;;;;;15.57;11.75;;;24.00;99.90;;;;;;5101860;28;20422;-78
2021/07/24 10:24:23;;;;;;;20.27;11.60;;;24.00;99.90;;;;;;5093857;28;20166;-79
2021/07/24 10:27:10;;;;;;;25.65;12.15;;;24.00;99.90;;;;;;5071777;28;20227;-76
2021/07/24 10:29:39;;;;;;;13.38;11.63;;;24.00;99.90;;;;;;5089235;28;20175;-78
2021/07/24 10:32:10;;;;;;;20.75;11.77;;;24.00;99.90;;;;;;5073119;28;20201;-80
2021/07/24 10:34:47;;;;;;;15.70;12.13;;;23.90;99.90;;;;;;5093469;28;20638;-78
2021/07/24 10:37:46;;;;;;;16.90;12.05;;;24.00;99.90;;;;;;5092491;28;20174;-78
2021/07/24 10:40:15;;;;;;;22.52;12.32;;;24.20;99.90;;;;;;5074499;28;20190;-78
2021/07/24 10:42:41;;;;;;;19.67;12.93;;;24.20;99.90;;;;;;5093122;28;20620;-78
2021/07/24 10:45:45;;;;;;;19.77;12.43;;;24.20;99.90;;;;;;5048996;28;20239;-78
2021/07/24 10:48:14;;;;;;;17.92;11.75;;;24.10;99.90;;;;;;4975837;28;20184;-77
2021/07/24 10:50:57;;;;;;;21.38;12.63;;;24.10;99.90;;;;;;5062361;28;20217;-78
2021/07/24 10:53:27;;;;;;;19.35;13.60;;;24.10;99.90;;;;;;5093495;28;20228;-75
2021/07/24 10:55:54;;;;;;;15.52;11.77;;;24.00;99.90;;;;;;5090025;28;20593;-78
2021/07/24 10:58:25;;;;;;;20.30;13.27;;;23.90;99.90;;;;;;5072574;28;20186;-78
2021/07/24 11:00:52;;;;;;;15.75;13.55;;;23.90;99.90;;;;;;5079400;28;20200;-78
2021/07/24 11:03:43;;;;;;;17.73;13.48;;;24.00;99.90;;;;;;5086377;28;20180;-79
2021/07/24 11:06:29;;;;;;;21.65;13.55;;;24.00;99.90;;;;;;5073831;28;20162;-78
2021/07/24 11:09:11;;;;;;;32.15;13.85;;;24.00;99.90;;;;;;5089651;28;20223;-79
2021/07/24 11:11:48;;;;;;;24.48;13.52;;;24.10;99.90;;;;;;5084646;28;20236;-78
2021/07/24 11:14:41;;;;;;;18.42;13.30;;;24.20;99.90;;;;;;5056379;28;20676;-78
2021/07/24 11:17:06;;;;;;;18.67;11.68;;;24.10;99.90;;;;;;5076651;28;20208;-79
2021/07/24 11:19:37;;;;;;;24.20;13.75;;;24.10;99.90;;;;;;5093233;28;20178;-77
2021/07/24 11:22:28;;;;;;;16.77;12.77;;;24.00;99.90;;;;;;5084500;28;20253;-78
2021/07/24 11:24:53;;;;;;;23.83;12.25;;;24.00;99.90;;;;;;5072017;28;20688;-77
2021/07/24 11:27:31;;;;;;;20.80;11.75;;;24.00;99.90;;;;;;5085082;28;20262;-76
2021/07/24 11:30:02;;;;;;;15.90;11.68;;;23.90;99.90;;;;;;5088666;28;20158;-76
2021/07/24 11:32:29;;;;;;;16.92;11.82;;;23.90;99.90;;;;;;5058865;28;20216;-78
2021/07/24 11:35:07;;;;;;;15.50;11.95;;;24.00;99.90;;;;;;5088798;28;20178;-79
2021/07/24 11:37:37;;;;;;;17.90;12.57;;;24.10;99.90;;;;;;5058799;28;20183;-76
2021/07/24 11:40:08;;;;;;;19.75;12.18;;;24.20;99.90;;;;;;5058925;28;20253;-77
2021/07/24 11:42:34;;;;;;;30.00;13.02;;;24.20;99.90;;;;;;5076335;28;20580;-78
2021/07/24 11:44:59;;;;;;;18.25;11.43;;;24.50;99.90;;;;;;5088485;28;20182;-77
2021/07/24 11:47:25;;;;;;;13.07;11.77;;;24.80;99.90;;;;;;5096856;28;20223;-76
2021/07/24 11:49:50;;;;;;;13.70;11.75;;;25.10;99.90;;;;;;5096720;28;20701;-77
2021/07/24 11:52:22;;;;;;;16.65;12.07;;;25.40;99.90;;;;;;5096741;28;20286;-76
2021/07/24 11:54:51;;;;;;;13.15;11.85;;;25.60;99.90;;;;;;5063006;28;20688;-78
2021/07/24 11:57:27;;;;;;;18.42;11.32;;;25.70;99.90;;;;;;5076237;28;20196;-79
2021/07/24 11:59:53;;;;;;;11.98;10.82;;;25.90;99.90;;;;;;5066939;28;20179;-77
2021/07/24 12:02:20;;;;;;;19.92;12.60;;;26.20;99.90;;;;;;5082205;28;20178;-77
2021/07/24 12:04:52;;;;;;;11.88;10.77;;;26.20;99.90;;;;;;5062497;28;20191;-78
2021/07/24 12:07:19;;;;;;;21.63;10.80;;;26.00;99.90;;;;;;5076513;28;20262;-76
2021/07/24 12:09:45;;;;;;;16.88;11.95;;;26.00;99.90;;;;;;5076243;28;20162;-77
2021/07/24 12:12:11;;;;;;;20.45;11.80;;;25.80;99.90;;;;;;5067017;28;20244;-79
2021/07/24 12:14:36;;;;;;;15.27;10.73;;;26.00;99.90;;;;;;5061631;28;20640;-78
2021/07/24 12:17:12;;;;;;;15.07;11.90;;;26.20;99.90;;;;;;5076192;28;20167;-76
2021/07/24 12:19:38;;;;;;;14.27;12.13;;;26.00;99.90;;;;;;5083460;28;20252;-78
2021/07/24 12:22:22;;;;;;;13.63;10.73;;;25.90;99.90;;;;;;5096286;28;20166;-77
2021/07/24 12:24:50;;;;;;;14.73;10.75;;;26.10;99.90;;;;;;5089956;28;20253;-78
2021/07/24 12:27:18;;;;;;;13.20;11.88;;;26.50;99.90;;;;;;5082089;28;20209;-79
2021/07/24 12:29:53;;;;;;;17.45;10.40;;;26.90;99.90;;;;;;5086453;28;20181;-79
2021/07/24 12:32:21;;;;;;;19.98;11.52;;;27.30;99.90;;;;;;5077546;28;20228;-79
2021/07/24 12:34:50;;;;;;;16.27;11.20;;;27.50;99.90;;;;;;5076018;28;20174;-79
2021/07/24 12:37:32;;;;;;;12.02;10.73;;;27.60;99.90;;;;;;5066220;28;20217;-79
2021/07/24 12:40:18;;;;;;;13.30;10.88;;;27.70;99.90;;;;;;5051994;28;20191;-77
2021/07/24 12:42:44;;;;;;;14.43;10.68;;;27.60;99.90;;;;;;5075656;28;20159;-79